sensor_id;sensor_type;location;lat;lon;timestamp;P1;durP1;ratioP1;P2;durP2;ratioP2
13683;SDS011;6914;53.552;9.908;2024-01-07T00:01:01;2.83;;;2.50;;
13683;SDS011;6914;53.552;9.908;2024-01-07T00:03:30;2.60;;;2.47;;
13683;SDS011;6914;53.552;9.908;2024-01-07T00:05:57;4.20;;;2.10;;
13683;SDS011;6914;53.552;9.908;2024-01-07T00:08:23;3.20;;;2.80;;
13683;SDS011;6914;53.552;9.908;2024-01-07T00:10:50;2.37;;;2.17;;
13683;SDS011;6914;53.552;9.908;2024-01-07T00:13:17;2.70;;;2.50;;
13683;SDS011;6914;53.552;9.908;2024-01-07T00:15:44;2.80;;;2.10;;
13683;SDS011;6914;53.552;9.908;2024-01-07T00:18:11;2.10;;;1.97;;
13683;SDS011;6914;53.552;9.908;2024-01-07T00:20:39;4.23;;;2.50;;
13683;SDS011;6914;53.552;9.908;2024-01-07T00:23:06;9.10;;;2.40;;
13683;SDS011;6914;53.552;9.908;2024-01-07T00:25:32;2.03;;;1.63;;
13683;SDS011;6914;53.552;9.908;2024-01-07T00:27:59;2.33;;;1.90;;
13683;SDS011;6914;53.552;9.908;2024-01-07T00:30:26;2.70;;;2.50;;
13683;SDS011;6914;53.552;9.908;2024-01-07T00:32:54;2.60;;;2.40;;
13683;SDS011;6914;53.552;9.908;2024-01-07T00:35:21;2.10;;;2.00;;
13683;SDS011;6914;53.552;9.908;2024-01-07T00:37:49;3.40;;;2.40;;
13683;SDS011;6914;53.552;9.908;2024-01-07T00:40:16;12.33;;;2.50;;
13683;SDS011;6914;53.552;9.908;2024-01-07T00:42:42;2.37;;;2.27;;
13683;SDS011;6914;53.552;9.908;2024-01-07T00:45:09;2.20;;;2.10;;
13683;SDS011;6914;53.552;9.908;2024-01-07T00:47:36;3.33;;;2.40;;
13683;SDS011;6914;53.552;9.908;2024-01-07T00:50:03;1.70;;;1.60;;
13683;SDS011;6914;53.552;9.908;2024-01-07T00:52:30;3.77;;;2.27;;
13683;SDS011;6914;53.552;9.908;2024-01-07T00:54:59;12.13;;;2.33;;
13683;SDS011;6914;53.552;9.908;2024-01-07T00:57:28;2.43;;;1.90;;
13683;SDS011;6914;53.552;9.908;2024-01-07T00:59:55;2.43;;;2.23;;
13683;SDS011;6914;53.552;9.908;2024-01-07T01:02:22;2.10;;;1.93;;
13683;SDS011;6914;53.552;9.908;2024-01-07T01:04:48;3.97;;;2.40;;
13683;SDS011;6914;53.552;9.908;2024-01-07T01:07:15;3.57;;;3.23;;
13683;SDS011;6914;53.552;9.908;2024-01-07T01:09:42;1.40;;;1.30;;
13683;SDS011;6914;53.552;9.908;2024-01-07T01:12:10;1.70;;;1.60;;
13683;SDS011;6914;53.552;9.908;2024-01-07T01:14:37;2.60;;;2.50;;
13683;SDS011;6914;53.552;9.908;2024-01-07T01:17:04;3.63;;;2.60;;
13683;SDS011;6914;53.552;9.908;2024-01-07T01:19:31;2.37;;;1.93;;
13683;SDS011;6914;53.552;9.908;2024-01-07T01:21:59;2.57;;;1.97;;
13683;SDS011;6914;53.552;9.908;2024-01-07T01:24:26;4.67;;;2.47;;
13683;SDS011;6914;53.552;9.908;2024-01-07T01:26:53;2.50;;;2.20;;
13683;SDS011;6914;53.552;9.908;2024-01-07T01:29:21;2.40;;;2.30;;
13683;SDS011;6914;53.552;9.908;2024-01-07T01:31:47;2.60;;;2.00;;
13683;SDS011;6914;53.552;9.908;2024-01-07T01:34:14;2.27;;;2.17;;
13683;SDS011;6914;53.552;9.908;2024-01-07T01:36:41;2.37;;;1.40;;
13683;SDS011;6914;53.552;9.908;2024-01-07T01:39:08;2.00;;;1.83;;
13683;SDS011;6914;53.552;9.908;2024-01-07T01:41:35;2.20;;;2.10;;
13683;SDS011;6914;53.552;9.908;2024-01-07T01:44:01;2.67;;;2.47;;
13683;SDS011;6914;53.552;9.908;2024-01-07T01:46:30;1.90;;;1.80;;
13683;SDS011;6914;53.552;9.908;2024-01-07T01:48:57;4.90;;;2.17;;
13683;SDS011;6914;53.552;9.908;2024-01-07T01:51:25;3.00;;;2.63;;
13683;SDS011;6914;53.552;9.908;2024-01-07T01:53:52;5.73;;;2.00;;
13683;SDS011;6914;53.552;9.908;2024-01-07T01:56:20;2.30;;;2.20;;
13683;SDS011;6914;53.552;9.908;2024-01-07T01:58:48;8.23;;;2.40;;
13683;SDS011;6914;53.552;9.908;2024-01-07T02:01:15;1.80;;;1.70;;
13683;SDS011;6914;53.552;9.908;2024-01-07T02:03:43;2.23;;;1.77;;
13683;SDS011;6914;53.552;9.908;2024-01-07T02:06:11;4.83;;;2.30;;
13683;SDS011;6914;53.552;9.908;2024-01-07T02:08:38;3.07;;;1.73;;
13683;SDS011;6914;53.552;9.908;2024-01-07T02:13:50;2.00;;;1.90;;
13683;SDS011;6914;53.552;9.908;2024-01-07T02:16:18;2.70;;;2.40;;
13683;SDS011;6914;53.552;9.908;2024-01-07T02:18:46;3.23;;;2.13;;
13683;SDS011;6914;53.552;9.908;2024-01-07T02:21:13;1.80;;;1.70;;
13683;SDS011;6914;53.552;9.908;2024-01-07T02:23:40;2.13;;;2.03;;
13683;SDS011;6914;53.552;9.908;2024-01-07T02:26:09;6.67;;;2.13;;
13683;SDS011;6914;53.552;9.908;2024-01-07T02:28:35;1.83;;;1.73;;
13683;SDS011;6914;53.552;9.908;2024-01-07T02:31:02;2.47;;;1.90;;
13683;SDS011;6914;53.552;9.908;2024-01-07T02:33:29;2.40;;;2.20;;
13683;SDS011;6914;53.552;9.908;2024-01-07T02:35:56;2.17;;;2.00;;
13683;SDS011;6914;53.552;9.908;2024-01-07T02:38:23;12.50;;;2.30;;
13683;SDS011;6914;53.552;9.908;2024-01-07T02:40:50;3.17;;;2.07;;
13683;SDS011;6914;53.552;9.908;2024-01-07T02:43:18;1.87;;;1.77;;
13683;SDS011;6914;53.552;9.908;2024-01-07T02:45:45;3.40;;;2.20;;
13683;SDS011;6914;53.552;9.908;2024-01-07T02:48:11;2.67;;;2.00;;
13683;SDS011;6914;53.552;9.908;2024-01-07T02:50:38;2.30;;;2.13;;
13683;SDS011;6914;53.552;9.908;2024-01-07T02:53:06;1.50;;;1.40;;
13683;SDS011;6914;53.552;9.908;2024-01-07T02:55:35;2.10;;;2.00;;
13683;SDS011;6914;53.552;9.908;2024-01-07T02:58:02;6.77;;;2.50;;
13683;SDS011;6914;53.552;9.908;2024-01-07T03:00:31;1.90;;;1.53;;
13683;SDS011;6914;53.552;9.908;2024-01-07T03:02:57;2.13;;;2.03;;
13683;SDS011;6914;53.552;9.908;2024-01-07T03:05:24;2.73;;;2.27;;
13683;SDS011;6914;53.552;9.908;2024-01-07T03:07:52;2.47;;;1.70;;
13683;SDS011;6914;53.552;9.908;2024-01-07T03:10:19;2.13;;;2.00;;
13683;SDS011;6914;53.552;9.908;2024-01-07T03:12:46;8.30;;;1.90;;
13683;SDS011;6914;53.552;9.908;2024-01-07T03:15:13;1.63;;;1.53;;
13683;SDS011;6914;53.552;9.908;2024-01-07T03:17:41;1.90;;;1.80;;
13683;SDS011;6914;53.552;9.908;2024-01-07T03:20:08;1.97;;;1.73;;
13683;SDS011;6914;53.552;9.908;2024-01-07T03:22:36;3.80;;;2.07;;
13683;SDS011;6914;53.552;9.908;2024-01-07T03:25:03;3.60;;;1.93;;
13683;SDS011;6914;53.552;9.908;2024-01-07T03:27:31;1.73;;;1.40;;
13683;SDS011;6914;53.552;9.908;2024-01-07T03:29:57;3.10;;;2.03;;
13683;SDS011;6914;53.552;9.908;2024-01-07T03:32:24;6.40;;;1.83;;
13683;SDS011;6914;53.552;9.908;2024-01-07T03:34:52;1.97;;;1.83;;
13683;SDS011;6914;53.552;9.908;2024-01-07T03:37:19;1.93;;;1.83;;
13683;SDS011;6914;53.552;9.908;2024-01-07T03:39:47;7.30;;;1.20;;
13683;SDS011;6914;53.552;9.908;2024-01-07T03:42:14;2.90;;;2.00;;
13683;SDS011;6914;53.552;9.908;2024-01-07T03:44:41;4.93;;;1.90;;
13683;SDS011;6914;53.552;9.908;2024-01-07T03:47:07;5.70;;;2.40;;
13683;SDS011;6914;53.552;9.908;2024-01-07T03:49:35;1.40;;;1.30;;
13683;SDS011;6914;53.552;9.908;2024-01-07T03:52:04;2.10;;;1.73;;
13683;SDS011;6914;53.552;9.908;2024-01-07T03:54:32;3.43;;;2.13;;
13683;SDS011;6914;53.552;9.908;2024-01-07T03:56:59;2.00;;;1.90;;
13683;SDS011;6914;53.552;9.908;2024-01-07T03:59:26;3.53;;;1.77;;
13683;SDS011;6914;53.552;9.908;2024-01-07T04:01:53;1.87;;;1.50;;
13683;SDS011;6914;53.552;9.908;2024-01-07T04:04:22;3.33;;;1.90;;
13683;SDS011;6914;53.552;9.908;2024-01-07T04:06:48;1.90;;;1.63;;
13683;SDS011;6914;53.552;9.908;2024-01-07T04:09:17;1.50;;;1.40;;
13683;SDS011;6914;53.552;9.908;2024-01-07T04:11:43;3.03;;;2.40;;
13683;SDS011;6914;53.552;9.908;2024-01-07T04:14:10;1.83;;;1.30;;
13683;SDS011;6914;53.552;9.908;2024-01-07T04:16:40;4.80;;;1.80;;
13683;SDS011;6914;53.552;9.908;2024-01-07T04:19:07;1.60;;;1.60;;
13683;SDS011;6914;53.552;9.908;2024-01-07T04:21:34;3.03;;;1.90;;
13683;SDS011;6914;53.552;9.908;2024-01-07T04:24:01;1.87;;;1.37;;
13683;SDS011;6914;53.552;9.908;2024-01-07T04:26:29;6.53;;;1.57;;
13683;SDS011;6914;53.552;9.908;2024-01-07T04:28:56;1.77;;;1.40;;
13683;SDS011;6914;53.552;9.908;2024-01-07T04:31:23;4.50;;;2.00;;
13683;SDS011;6914;53.552;9.908;2024-01-07T04:33:49;1.40;;;1.40;;
13683;SDS011;6914;53.552;9.908;2024-01-07T04:36:16;2.97;;;1.73;;
13683;SDS011;6914;53.552;9.908;2024-01-07T04:38:43;1.27;;;1.17;;
13683;SDS011;6914;53.552;9.908;2024-01-07T04:41:10;1.20;;;1.10;;
13683;SDS011;6914;53.552;9.908;2024-01-07T04:43:38;2.00;;;1.33;;
13683;SDS011;6914;53.552;9.908;2024-01-07T04:46:05;1.70;;;1.60;;
13683;SDS011;6914;53.552;9.908;2024-01-07T04:48:32;1.63;;;1.53;;
13683;SDS011;6914;53.552;9.908;2024-01-07T04:50:59;1.07;;;1.07;;
13683;SDS011;6914;53.552;9.908;2024-01-07T04:53:26;2.83;;;1.30;;
13683;SDS011;6914;53.552;9.908;2024-01-07T04:55:52;1.90;;;1.67;;
13683;SDS011;6914;53.552;9.908;2024-01-07T04:58:19;4.10;;;1.27;;
13683;SDS011;6914;53.552;9.908;2024-01-07T05:00:47;1.37;;;1.37;;
13683;SDS011;6914;53.552;9.908;2024-01-07T05:03:14;0.97;;;0.97;;
13683;SDS011;6914;53.552;9.908;2024-01-07T05:05:41;1.53;;;1.10;;
13683;SDS011;6914;53.552;9.908;2024-01-07T05:08:08;1.50;;;1.40;;
13683;SDS011;6914;53.552;9.908;2024-01-07T05:10:35;1.70;;;1.00;;
13683;SDS011;6914;53.552;9.908;2024-01-07T05:13:01;1.73;;;1.23;;
13683;SDS011;6914;53.552;9.908;2024-01-07T05:15:32;0.87;;;0.87;;
13683;SDS011;6914;53.552;9.908;2024-01-07T05:18:00;2.80;;;1.30;;
13683;SDS011;6914;53.552;9.908;2024-01-07T05:20:27;1.93;;;1.83;;
13683;SDS011;6914;53.552;9.908;2024-01-07T05:22:54;2.00;;;1.87;;
13683;SDS011;6914;53.552;9.908;2024-01-07T05:25:21;1.80;;;1.33;;
13683;SDS011;6914;53.552;9.908;2024-01-07T05:27:47;8.60;;;1.67;;
13683;SDS011;6914;53.552;9.908;2024-01-07T05:30:14;1.10;;;1.00;;
13683;SDS011;6914;53.552;9.908;2024-01-07T05:32:41;1.17;;;1.17;;
13683;SDS011;6914;53.552;9.908;2024-01-07T05:35:09;1.10;;;1.07;;
13683;SDS011;6914;53.552;9.908;2024-01-07T05:37:36;1.50;;;1.20;;
13683;SDS011;6914;53.552;9.908;2024-01-07T05:40:03;4.70;;;1.57;;
13683;SDS011;6914;53.552;9.908;2024-01-07T05:42:31;1.00;;;1.00;;
13683;SDS011;6914;53.552;9.908;2024-01-07T05:44:58;1.00;;;1.00;;
13683;SDS011;6914;53.552;9.908;2024-01-07T05:47:24;1.43;;;1.33;;
13683;SDS011;6914;53.552;9.908;2024-01-07T05:49:51;1.23;;;1.13;;
13683;SDS011;6914;53.552;9.908;2024-01-07T05:52:19;2.30;;;1.20;;
13683;SDS011;6914;53.552;9.908;2024-01-07T05:54:46;1.00;;;1.00;;
13683;SDS011;6914;53.552;9.908;2024-01-07T05:57:13;1.27;;;1.17;;
13683;SDS011;6914;53.552;9.908;2024-01-07T05:59:40;1.13;;;1.13;;
13683;SDS011;6914;53.552;9.908;2024-01-07T06:02:06;1.17;;;1.17;;
13683;SDS011;6914;53.552;9.908;2024-01-07T06:04:34;4.87;;;1.37;;
13683;SDS011;6914;53.552;9.908;2024-01-07T06:07:00;1.40;;;1.30;;
13683;SDS011;6914;53.552;9.908;2024-01-07T06:09:29;1.23;;;1.13;;
13683;SDS011;6914;53.552;9.908;2024-01-07T06:11:56;1.97;;;1.43;;
13683;SDS011;6914;53.552;9.908;2024-01-07T06:14:23;1.30;;;1.00;;
13683;SDS011;6914;53.552;9.908;2024-01-07T06:16:50;5.07;;;1.60;;
13683;SDS011;6914;53.552;9.908;2024-01-07T06:19:17;1.27;;;1.17;;
13683;SDS011;6914;53.552;9.908;2024-01-07T06:21:44;3.60;;;2.07;;
13683;SDS011;6914;53.552;9.908;2024-01-07T06:24:11;1.13;;;1.13;;
13683;SDS011;6914;53.552;9.908;2024-01-07T06:26:39;1.00;;;1.00;;
13683;SDS011;6914;53.552;9.908;2024-01-07T06:31:34;1.20;;;1.20;;
13683;SDS011;6914;53.552;9.908;2024-01-07T06:34:01;3.30;;;1.53;;
13683;SDS011;6914;53.552;9.908;2024-01-07T06:36:28;2.27;;;2.10;;
13683;SDS011;6914;53.552;9.908;2024-01-07T06:38:55;1.57;;;1.50;;
13683;SDS011;6914;53.552;9.908;2024-01-07T06:41:22;1.90;;;1.80;;
13683;SDS011;6914;53.552;9.908;2024-01-07T06:43:50;1.10;;;1.10;;
13683;SDS011;6914;53.552;9.908;2024-01-07T06:46:19;4.70;;;1.53;;
13683;SDS011;6914;53.552;9.908;2024-01-07T06:48:46;4.70;;;2.00;;
13683;SDS011;6914;53.552;9.908;2024-01-07T06:51:13;3.13;;;1.70;;
13683;SDS011;6914;53.552;9.908;2024-01-07T06:53:40;1.63;;;1.50;;
13683;SDS011;6914;53.552;9.908;2024-01-07T06:56:07;1.73;;;1.63;;
13683;SDS011;6914;53.552;9.908;2024-01-07T06:58:34;5.30;;;1.87;;
13683;SDS011;6914;53.552;9.908;2024-01-07T07:01:02;2.90;;;1.70;;
13683;SDS011;6914;53.552;9.908;2024-01-07T07:03:32;9.37;;;2.00;;
13683;SDS011;6914;53.552;9.908;2024-01-07T07:05:59;1.53;;;1.43;;
13683;SDS011;6914;53.552;9.908;2024-01-07T07:08:26;2.07;;;1.93;;
13683;SDS011;6914;53.552;9.908;2024-01-07T07:10:52;7.63;;;2.50;;
13683;SDS011;6914;53.552;9.908;2024-01-07T07:13:19;10.43;;;2.77;;
13683;SDS011;6914;53.552;9.908;2024-01-07T07:15:46;4.00;;;2.07;;
13683;SDS011;6914;53.552;9.908;2024-01-07T07:18:14;4.00;;;2.67;;
13683;SDS011;6914;53.552;9.908;2024-01-07T07:20:41;3.07;;;2.80;;
13683;SDS011;6914;53.552;9.908;2024-01-07T07:23:08;4.30;;;2.83;;
13683;SDS011;6914;53.552;9.908;2024-01-07T07:25:35;2.60;;;2.40;;
13683;SDS011;6914;53.552;9.908;2024-01-07T07:28:01;4.07;;;3.07;;
13683;SDS011;6914;53.552;9.908;2024-01-07T07:30:28;6.40;;;3.40;;
13683;SDS011;6914;53.552;9.908;2024-01-07T07:32:55;7.63;;;3.03;;
13683;SDS011;6914;53.552;9.908;2024-01-07T07:35:23;3.37;;;3.07;;
13683;SDS011;6914;53.552;9.908;2024-01-07T07:37:50;3.13;;;2.87;;
13683;SDS011;6914;53.552;9.908;2024-01-07T07:40:17;6.63;;;3.87;;
13683;SDS011;6914;53.552;9.908;2024-01-07T07:42:44;3.97;;;3.67;;
13683;SDS011;6914;53.552;9.908;2024-01-07T07:45:11;4.27;;;3.87;;
13683;SDS011;6914;53.552;9.908;2024-01-07T07:47:38;7.63;;;4.30;;
13683;SDS011;6914;53.552;9.908;2024-01-07T07:50:07;4.33;;;3.10;;
13683;SDS011;6914;53.552;9.908;2024-01-07T07:52:36;7.53;;;4.17;;
13683;SDS011;6914;53.552;9.908;2024-01-07T07:55:03;6.87;;;3.80;;
13683;SDS011;6914;53.552;9.908;2024-01-07T07:57:32;4.50;;;4.20;;
13683;SDS011;6914;53.552;9.908;2024-01-07T07:59:58;6.23;;;3.80;;
13683;SDS011;6914;53.552;9.908;2024-01-07T08:02:25;4.83;;;4.23;;
13683;SDS011;6914;53.552;9.908;2024-01-07T08:04:52;3.80;;;3.23;;
13683;SDS011;6914;53.552;9.908;2024-01-07T08:07:19;3.30;;;3.10;;
13683;SDS011;6914;53.552;9.908;2024-01-07T08:09:47;10.27;;;4.20;;
13683;SDS011;6914;53.552;9.908;2024-01-07T08:12:14;4.70;;;4.20;;
13683;SDS011;6914;53.552;9.908;2024-01-07T08:14:40;4.20;;;3.80;;
13683;SDS011;6914;53.552;9.908;2024-01-07T08:17:07;5.13;;;3.83;;
13683;SDS011;6914;53.552;9.908;2024-01-07T08:19:35;3.90;;;3.63;;
13683;SDS011;6914;53.552;9.908;2024-01-07T08:22:02;4.73;;;4.23;;
13683;SDS011;6914;53.552;9.908;2024-01-07T08:24:29;3.37;;;3.17;;
13683;SDS011;6914;53.552;9.908;2024-01-07T08:26:57;6.97;;;4.57;;
13683;SDS011;6914;53.552;9.908;2024-01-07T08:29:24;15.83;;;3.80;;
13683;SDS011;6914;53.552;9.908;2024-01-07T08:31:51;3.60;;;3.30;;
13683;SDS011;6914;53.552;9.908;2024-01-07T08:34:18;6.20;;;3.30;;
13683;SDS011;6914;53.552;9.908;2024-01-07T08:36:44;4.07;;;3.77;;
13683;SDS011;6914;53.552;9.908;2024-01-07T08:39:11;10.27;;;4.13;;
13683;SDS011;6914;53.552;9.908;2024-01-07T08:41:40;4.40;;;4.00;;
13683;SDS011;6914;53.552;9.908;2024-01-07T08:44:09;3.60;;;3.13;;
13683;SDS011;6914;53.552;9.908;2024-01-07T08:46:35;4.67;;;3.87;;
13683;SDS011;6914;53.552;9.908;2024-01-07T08:49:02;4.33;;;4.00;;
13683;SDS011;6914;53.552;9.908;2024-01-07T08:51:29;3.40;;;3.10;;
13683;SDS011;6914;53.552;9.908;2024-01-07T08:53:56;4.23;;;3.20;;
13683;SDS011;6914;53.552;9.908;2024-01-07T08:56:24;6.10;;;3.77;;
13683;SDS011;6914;53.552;9.908;2024-01-07T08:58:51;10.17;;;4.40;;
13683;SDS011;6914;53.552;9.908;2024-01-07T09:01:19;3.60;;;3.13;;
13683;SDS011;6914;53.552;9.908;2024-01-07T09:03:46;5.50;;;3.97;;
13683;SDS011;6914;53.552;9.908;2024-01-07T09:06:13;4.20;;;3.80;;
13683;SDS011;6914;53.552;9.908;2024-01-07T09:08:40;3.47;;;3.17;;
13683;SDS011;6914;53.552;9.908;2024-01-07T09:11:07;6.80;;;3.43;;
13683;SDS011;6914;53.552;9.908;2024-01-07T09:13:36;3.63;;;2.80;;
13683;SDS011;6914;53.552;9.908;2024-01-07T09:16:03;5.80;;;3.60;;
13683;SDS011;6914;53.552;9.908;2024-01-07T09:18:31;3.13;;;3.03;;
13683;SDS011;6914;53.552;9.908;2024-01-07T09:20:58;3.07;;;2.87;;
13683;SDS011;6914;53.552;9.908;2024-01-07T09:23:25;3.23;;;3.03;;
13683;SDS011;6914;53.552;9.908;2024-01-07T09:25:52;5.37;;;2.90;;
13683;SDS011;6914;53.552;9.908;2024-01-07T09:28:18;3.93;;;3.00;;
13683;SDS011;6914;53.552;9.908;2024-01-07T09:30:45;3.17;;;3.00;;
13683;SDS011;6914;53.552;9.908;2024-01-07T09:33:12;2.80;;;2.60;;
13683;SDS011;6914;53.552;9.908;2024-01-07T09:35:41;3.30;;;2.90;;
13683;SDS011;6914;53.552;9.908;2024-01-07T09:38:09;5.37;;;3.20;;
13683;SDS011;6914;53.552;9.908;2024-01-07T09:40:37;5.63;;;3.17;;
13683;SDS011;6914;53.552;9.908;2024-01-07T09:43:04;3.53;;;3.23;;
13683;SDS011;6914;53.552;9.908;2024-01-07T09:45:31;7.80;;;2.90;;
13683;SDS011;6914;53.552;9.908;2024-01-07T09:47:58;7.00;;;2.93;;
13683;SDS011;6914;53.552;9.908;2024-01-07T09:50:25;3.17;;;2.97;;
13683;SDS011;6914;53.552;9.908;2024-01-07T09:52:54;3.33;;;3.20;;
13683;SDS011;6914;53.552;9.908;2024-01-07T09:55:26;3.30;;;3.10;;
13683;SDS011;6914;53.552;9.908;2024-01-07T09:57:58;3.70;;;3.50;;
13683;SDS011;6914;53.552;9.908;2024-01-07T10:00:26;9.30;;;3.63;;
13683;SDS011;6914;53.552;9.908;2024-01-07T10:02:54;5.13;;;3.60;;
13683;SDS011;6914;53.552;9.908;2024-01-07T10:05:20;4.20;;;3.33;;
13683;SDS011;6914;53.552;9.908;2024-01-07T10:07:47;3.40;;;3.20;;
13683;SDS011;6914;53.552;9.908;2024-01-07T10:10:16;3.07;;;2.97;;
13683;SDS011;6914;53.552;9.908;2024-01-07T10:12:43;3.83;;;3.53;;
13683;SDS011;6914;53.552;9.908;2024-01-07T10:15:12;3.33;;;2.97;;
13683;SDS011;6914;53.552;9.908;2024-01-07T10:17:39;2.70;;;2.50;;
13683;SDS011;6914;53.552;9.908;2024-01-07T10:20:07;3.77;;;3.47;;
13683;SDS011;6914;53.552;9.908;2024-01-07T10:22:35;4.23;;;3.60;;
13683;SDS011;6914;53.552;9.908;2024-01-07T10:25:03;3.80;;;3.50;;
13683;SDS011;6914;53.552;9.908;2024-01-07T10:27:34;3.07;;;2.90;;
13683;SDS011;6914;53.552;9.908;2024-01-07T10:30:03;6.70;;;3.63;;
13683;SDS011;6914;53.552;9.908;2024-01-07T10:32:30;4.20;;;3.47;;
13683;SDS011;6914;53.552;9.908;2024-01-07T10:35:00;4.03;;;2.60;;
13683;SDS011;6914;53.552;9.908;2024-01-07T10:37:28;3.57;;;3.30;;
13683;SDS011;6914;53.552;9.908;2024-01-07T10:39:56;4.10;;;3.77;;
13683;SDS011;6914;53.552;9.908;2024-01-07T10:42:27;4.40;;;3.27;;
13683;SDS011;6914;53.552;9.908;2024-01-07T10:44:57;4.50;;;3.50;;
13683;SDS011;6914;53.552;9.908;2024-01-07T10:47:24;3.07;;;2.80;;
13683;SDS011;6914;53.552;9.908;2024-01-07T10:49:57;6.53;;;3.30;;
13683;SDS011;6914;53.552;9.908;2024-01-07T10:52:24;3.73;;;3.37;;
13683;SDS011;6914;53.552;9.908;2024-01-07T10:54:53;7.87;;;3.23;;
13683;SDS011;6914;53.552;9.908;2024-01-07T10:57:24;4.13;;;3.10;;
13683;SDS011;6914;53.552;9.908;2024-01-07T10:59:56;3.23;;;3.03;;
13683;SDS011;6914;53.552;9.908;2024-01-07T11:02:25;6.10;;;2.67;;
13683;SDS011;6914;53.552;9.908;2024-01-07T11:04:54;3.00;;;2.80;;
13683;SDS011;6914;53.552;9.908;2024-01-07T11:07:31;3.40;;;2.40;;
13683;SDS011;6914;53.552;9.908;2024-01-07T11:10:04;7.60;;;3.07;;
13683;SDS011;6914;53.552;9.908;2024-01-07T11:12:38;2.80;;;2.60;;
13683;SDS011;6914;53.552;9.908;2024-01-07T11:15:07;5.03;;;3.57;;
13683;SDS011;6914;53.552;9.908;2024-01-07T11:17:40;4.63;;;3.27;;
13683;SDS011;6914;53.552;9.908;2024-01-07T11:20:12;3.97;;;3.27;;
13683;SDS011;6914;53.552;9.908;2024-01-07T11:22:43;3.80;;;3.50;;
13683;SDS011;6914;53.552;9.908;2024-01-07T11:28:00;4.70;;;4.33;;
13683;SDS011;6914;53.552;9.908;2024-01-07T11:30:31;5.53;;;3.73;;
13683;SDS011;6914;53.552;9.908;2024-01-07T11:33:05;9.23;;;3.20;;
13683;SDS011;6914;53.552;9.908;2024-01-07T11:38:22;2.83;;;2.73;;
13683;SDS011;6914;53.552;9.908;2024-01-07T11:40:49;5.50;;;2.83;;
13683;SDS011;6914;53.552;9.908;2024-01-07T11:43:17;3.17;;;2.97;;
13683;SDS011;6914;53.552;9.908;2024-01-07T11:45:46;3.67;;;3.37;;
13683;SDS011;6914;53.552;9.908;2024-01-07T11:48:13;6.00;;;3.20;;
13683;SDS011;6914;53.552;9.908;2024-01-07T11:50:40;3.27;;;3.07;;
13683;SDS011;6914;53.552;9.908;2024-01-07T11:53:07;2.93;;;2.83;;
13683;SDS011;6914;53.552;9.908;2024-01-07T11:55:34;3.93;;;3.20;;
13683;SDS011;6914;53.552;9.908;2024-01-07T11:58:01;2.97;;;2.77;;
13683;SDS011;6914;53.552;9.908;2024-01-07T12:00:30;3.27;;;3.07;;
13683;SDS011;6914;53.552;9.908;2024-01-07T12:02:59;4.47;;;2.67;;
13683;SDS011;6914;53.552;9.908;2024-01-07T12:05:26;4.30;;;2.87;;
13683;SDS011;6914;53.552;9.908;2024-01-07T12:07:53;13.23;;;3.67;;
13683;SDS011;6914;53.552;9.908;2024-01-07T12:10:20;3.10;;;2.50;;
13683;SDS011;6914;53.552;9.908;2024-01-07T12:12:47;2.90;;;2.70;;
13683;SDS011;6914;53.552;9.908;2024-01-07T12:15:14;2.90;;;2.70;;
13683;SDS011;6914;53.552;9.908;2024-01-07T12:17:41;2.47;;;2.27;;
13683;SDS011;6914;53.552;9.908;2024-01-07T12:20:10;3.90;;;3.20;;
13683;SDS011;6914;53.552;9.908;2024-01-07T12:22:37;2.60;;;2.40;;
13683;SDS011;6914;53.552;9.908;2024-01-07T12:25:05;5.90;;;2.73;;
13683;SDS011;6914;53.552;9.908;2024-01-07T12:27:33;3.10;;;2.90;;
13683;SDS011;6914;53.552;9.908;2024-01-07T12:30:00;7.03;;;3.37;;
13683;SDS011;6914;53.552;9.908;2024-01-07T12:32:30;4.27;;;2.70;;
13683;SDS011;6914;53.552;9.908;2024-01-07T12:34:57;2.43;;;2.33;;
13683;SDS011;6914;53.552;9.908;2024-01-07T12:37:27;2.40;;;2.30;;
13683;SDS011;6914;53.552;9.908;2024-01-07T12:39:53;4.13;;;2.60;;
13683;SDS011;6914;53.552;9.908;2024-01-07T12:42:20;3.83;;;2.90;;
13683;SDS011;6914;53.552;9.908;2024-01-07T12:44:48;2.03;;;1.80;;
13683;SDS011;6914;53.552;9.908;2024-01-07T12:47:15;2.63;;;2.43;;
13683;SDS011;6914;53.552;9.908;2024-01-07T12:49:42;2.93;;;2.67;;
13683;SDS011;6914;53.552;9.908;2024-01-07T12:52:09;2.07;;;1.93;;
13683;SDS011;6914;53.552;9.908;2024-01-07T12:54:38;5.03;;;2.40;;
13683;SDS011;6914;53.552;9.908;2024-01-07T12:57:04;4.37;;;3.10;;
13683;SDS011;6914;53.552;9.908;2024-01-07T12:59:31;2.60;;;2.40;;
13683;SDS011;6914;53.552;9.908;2024-01-07T13:01:58;3.20;;;3.00;;
13683;SDS011;6914;53.552;9.908;2024-01-07T13:04:25;2.20;;;2.00;;
13683;SDS011;6914;53.552;9.908;2024-01-07T13:06:52;4.10;;;3.17;;
13683;SDS011;6914;53.552;9.908;2024-01-07T13:09:19;2.77;;;2.43;;
13683;SDS011;6914;53.552;9.908;2024-01-07T13:11:48;4.93;;;2.67;;
13683;SDS011;6914;53.552;9.908;2024-01-07T13:14:15;3.63;;;2.33;;
13683;SDS011;6914;53.552;9.908;2024-01-07T13:16:42;3.97;;;2.27;;
13683;SDS011;6914;53.552;9.908;2024-01-07T13:19:09;3.17;;;2.67;;
13683;SDS011;6914;53.552;9.908;2024-01-07T13:21:36;2.43;;;2.33;;
13683;SDS011;6914;53.552;9.908;2024-01-07T13:24:03;2.57;;;2.47;;
13683;SDS011;6914;53.552;9.908;2024-01-07T13:26:30;3.43;;;3.13;;
13683;SDS011;6914;53.552;9.908;2024-01-07T13:28:59;2.07;;;1.97;;
13683;SDS011;6914;53.552;9.908;2024-01-07T13:31:25;2.20;;;2.10;;
13683;SDS011;6914;53.552;9.908;2024-01-07T13:33:52;4.37;;;2.70;;
13683;SDS011;6914;53.552;9.908;2024-01-07T13:36:19;2.97;;;1.70;;
13683;SDS011;6914;53.552;9.908;2024-01-07T13:38:46;2.10;;;2.00;;
13683;SDS011;6914;53.552;9.908;2024-01-07T13:41:15;2.70;;;2.50;;
13683;SDS011;6914;53.552;9.908;2024-01-07T13:43:42;2.37;;;2.17;;
13683;SDS011;6914;53.552;9.908;2024-01-07T13:46:10;2.10;;;1.90;;
13683;SDS011;6914;53.552;9.908;2024-01-07T13:48:38;2.20;;;2.00;;
13683;SDS011;6914;53.552;9.908;2024-01-07T13:51:06;2.60;;;1.80;;
13683;SDS011;6914;53.552;9.908;2024-01-07T13:53:34;1.90;;;1.80;;
13683;SDS011;6914;53.552;9.908;2024-01-07T13:56:01;2.53;;;2.30;;
13683;SDS011;6914;53.552;9.908;2024-01-07T13:58:28;1.80;;;1.10;;
13683;SDS011;6914;53.552;9.908;2024-01-07T14:00:55;1.90;;;1.80;;
13683;SDS011;6914;53.552;9.908;2024-01-07T14:03:23;1.97;;;1.87;;
13683;SDS011;6914;53.552;9.908;2024-01-07T14:05:50;1.90;;;1.50;;
13683;SDS011;6914;53.552;9.908;2024-01-07T14:08:17;3.60;;;1.77;;
13683;SDS011;6914;53.552;9.908;2024-01-07T14:10:44;1.30;;;1.30;;
13683;SDS011;6914;53.552;9.908;2024-01-07T14:13:11;3.90;;;2.30;;
13683;SDS011;6914;53.552;9.908;2024-01-07T14:15:38;3.10;;;1.80;;
13683;SDS011;6914;53.552;9.908;2024-01-07T14:18:05;1.83;;;1.70;;
13683;SDS011;6914;53.552;9.908;2024-01-07T14:20:34;2.90;;;1.90;;
13683;SDS011;6914;53.552;9.908;2024-01-07T14:23:01;2.93;;;2.07;;
13683;SDS011;6914;53.552;9.908;2024-01-07T14:25:27;2.60;;;2.27;;
13683;SDS011;6914;53.552;9.908;2024-01-07T14:27:54;1.60;;;1.50;;
13683;SDS011;6914;53.552;9.908;2024-01-07T14:30:21;1.90;;;1.80;;
13683;SDS011;6914;53.552;9.908;2024-01-07T14:32:48;2.13;;;1.77;;
13683;SDS011;6914;53.552;9.908;2024-01-07T14:35:15;3.07;;;2.20;;
13683;SDS011;6914;53.552;9.908;2024-01-07T14:37:43;1.77;;;1.73;;
13683;SDS011;6914;53.552;9.908;2024-01-07T14:40:11;6.83;;;1.60;;
13683;SDS011;6914;53.552;9.908;2024-01-07T14:42:38;1.97;;;1.87;;
13683;SDS011;6914;53.552;9.908;2024-01-07T14:45:05;1.50;;;1.50;;
13683;SDS011;6914;53.552;9.908;2024-01-07T14:47:32;4.73;;;2.10;;
13683;SDS011;6914;53.552;9.908;2024-01-07T14:49:59;1.77;;;1.67;;
13683;SDS011;6914;53.552;9.908;2024-01-07T14:52:27;2.00;;;1.90;;
13683;SDS011;6914;53.552;9.908;2024-01-07T14:54:56;3.70;;;2.20;;
13683;SDS011;6914;53.552;9.908;2024-01-07T14:57:22;1.80;;;1.70;;
13683;SDS011;6914;53.552;9.908;2024-01-07T14:59:49;2.70;;;2.50;;
13683;SDS011;6914;53.552;9.908;2024-01-07T15:02:17;2.37;;;1.90;;
13683;SDS011;6914;53.552;9.908;2024-01-07T15:04:44;1.70;;;1.60;;
13683;SDS011;6914;53.552;9.908;2024-01-07T15:07:10;2.20;;;2.10;;
13683;SDS011;6914;53.552;9.908;2024-01-07T15:09:37;6.90;;;2.40;;
13683;SDS011;6914;53.552;9.908;2024-01-07T15:12:07;1.90;;;1.80;;